Time;durP1;ratioP1;P1;durP2;ratioP2;P2;SDS_P1;SDS_P2;PMS_P1;PMS_P2;Temp;Humidity;BMP_temperature;BMP_pressure;BME280_temperature;BME280_humidity;BME280_pressure;Samples;Min_cycle;Max_cycle;Signal;HPM_P1;HPM_P2
2022/05/11 00:00:10;;;;;;;12.70;3.65;;;14.00;99.90;;;;;;5055707;28;20047;-72
2022/05/11 00:02:37;;;;;;;7.47;2.77;;;13.90;99.90;;;;;;5056270;28;20051;-72
2022/05/11 00:05:06;;;;;;;10.38;3.53;;;13.90;99.90;;;;;;5055590;28;20068;-72
2022/05/11 00:07:34;;;;;;;15.55;3.65;;;13.90;99.90;;;;;;5054630;28;20128;-73
2022/05/11 00:10:01;;;;;;;10.23;3.28;;;13.90;99.90;;;;;;5055692;28;20056;-72
2022/05/11 00:12:27;;;;;;;14.55;3.65;;;13.90;99.90;;;;;;5056298;28;20048;-72
2022/05/11 00:14:54;;;;;;;8.13;2.85;;;13.80;99.90;;;;;;5055491;28;20049;-72
2022/05/11 00:17:21;;;;;;;13.70;3.65;;;13.80;99.90;;;;;;5055269;28;20091;-72
2022/05/11 00:19:48;;;;;;;14.85;3.50;;;13.80;99.90;;;;;;5055564;28;20040;-72
2022/05/11 00:22:15;;;;;;;17.83;4.13;;;13.80;99.90;;;;;;5055485;28;20049;-72
2022/05/11 00:24:42;;;;;;;15.23;4.10;;;13.80;99.90;;;;;;5037741;28;20048;-72
2022/05/11 00:27:09;;;;;;;9.75;4.05;;;13.70;99.90;;;;;;5054032;28;20045;-72
2022/05/11 00:29:35;;;;;;;11.18;4.22;;;13.70;99.90;;;;;;5055451;28;20044;-72
2022/05/11 00:32:03;;;;;;;12.55;3.38;;;13.70;99.90;;;;;;5053896;28;20045;-72
2022/05/11 00:34:30;;;;;;;15.40;4.10;;;13.70;99.90;;;;;;5055009;28;20048;-73
2022/05/11 00:36:58;;;;;;;11.27;3.67;;;13.70;99.90;;;;;;5055100;28;20449;-72
2022/05/11 00:39:25;;;;;;;15.48;4.13;;;13.70;99.90;;;;;;5055187;28;20045;-71
2022/05/11 00:41:53;;;;;;;13.98;4.15;;;13.70;99.90;;;;;;5053637;28;20044;-71
2022/05/11 00:44:20;;;;;;;17.10;4.35;;;13.70;99.90;;;;;;5055027;28;20045;-72
2022/05/11 00:47:01;;;;;;;19.15;5.50;;;13.70;99.90;;;;;;5053537;28;20048;-71
2022/05/11 00:49:39;;;;;;;12.80;4.35;;;13.60;99.90;;;;;;5054602;28;20060;-72
2022/05/11 00:52:19;;;;;;;18.02;4.63;;;13.60;99.90;;;;;;5054047;28;20044;-71
2022/05/11 00:54:53;;;;;;;12.65;4.10;;;13.50;99.90;;;;;;5054351;28;20045;-71
2022/05/11 00:57:24;;;;;;;10.20;2.97;;;13.50;99.90;;;;;;5038664;28;20758;-71
2022/05/11 00:59:51;;;;;;;13.55;4.15;;;13.50;99.90;;;;;;5055676;28;20041;-72
2022/05/11 01:02:18;;;;;;;11.43;3.22;;;13.50;99.90;;;;;;5054772;28;20040;-72
2022/05/11 01:04:45;;;;;;;14.50;3.63;;;13.50;99.90;;;;;;5036746;28;20423;-72
2022/05/11 01:07:13;;;;;;;16.00;6.38;;;13.50;99.90;;;;;;5053518;28;20068;-73
2022/05/11 01:09:41;;;;;;;22.02;5.30;;;13.50;99.90;;;;;;5053108;28;20045;-72
2022/05/11 01:12:11;;;;;;;17.92;5.30;;;13.50;99.90;;;;;;5053157;28;20037;-72
2022/05/11 01:14:39;;;;;;;15.02;3.65;;;13.40;99.90;;;;;;5052408;28;20068;-71
2022/05/11 01:17:06;;;;;;;17.85;5.97;;;13.40;99.90;;;;;;5053439;28;20048;-71
2022/05/11 01:19:35;;;;;;;14.55;4.10;;;13.40;99.90;;;;;;5052867;28;20044;-71
2022/05/11 01:22:03;;;;;;;12.20;4.05;;;13.30;99.90;;;;;;5053201;28;20059;-71
2022/05/11 01:24:32;;;;;;;16.35;5.50;;;13.30;99.90;;;;;;5052840;28;20476;-71
2022/05/11 01:27:39;;;;;;;16.02;4.97;;;13.20;99.90;;;;;;5052792;28;20041;-71
2022/05/11 01:30:19;;;;;;;13.88;4.20;;;13.30;99.90;;;;;;5055030;28;20419;-72
2022/05/11 01:32:51;;;;;;;15.07;3.63;;;13.20;99.90;;;;;;5053612;28;20044;-72
2022/05/11 01:35:42;;;;;;;13.52;4.00;;;13.20;99.90;;;;;;5053927;28;20045;-71
2022/05/11 01:38:31;;;;;;;16.52;5.00;;;13.20;99.90;;;;;;5052800;28;20045;-72
2022/05/11 01:40:58;;;;;;;13.15;5.22;;;13.20;99.90;;;;;;5053703;28;20440;-71
2022/05/11 01:43:27;;;;;;;17.00;4.97;;;13.10;99.90;;;;;;5052511;28;20048;-71
2022/05/11 01:45:54;;;;;;;17.67;6.00;;;13.10;99.90;;;;;;5052453;28;20045;-71
2022/05/11 01:48:21;;;;;;;14.20;4.60;;;13.10;99.90;;;;;;5053143;28;20281;-71
2022/05/11 01:50:48;;;;;;;17.67;4.85;;;13.00;99.90;;;;;;5054240;28;20052;-71
2022/05/11 01:53:15;;;;;;;23.10;6.60;;;13.00;99.90;;;;;;5054377;28;20037;-71
2022/05/11 01:55:42;;;;;;;18.95;5.45;;;12.90;99.90;;;;;;5052641;28;20041;-71
2022/05/11 01:58:09;;;;;;;15.00;4.45;;;12.90;99.90;;;;;;5053837;28;20048;-71
2022/05/11 02:00:36;;;;;;;18.98;6.00;;;12.80;99.90;;;;;;5054531;28;20053;-72
2022/05/11 02:03:03;;;;;;;20.23;6.93;;;12.80;99.90;;;;;;5052239;28;20044;-72
2022/05/11 02:08:16;;;;;;;14.88;4.50;;;12.70;99.90;;;;;;5053348;28;20132;-72
2022/05/11 02:10:43;;;;;;;16.40;4.25;;;12.70;99.90;;;;;;5052893;28;20045;-72
2022/05/11 02:13:10;;;;;;;19.25;5.78;;;12.70;99.90;;;;;;5054282;28;20049;-71
2022/05/11 02:15:37;;;;;;;17.13;5.20;;;12.60;99.90;;;;;;5052826;28;20064;-71
2022/05/11 02:18:04;;;;;;;14.85;4.57;;;12.60;99.90;;;;;;5052703;28;20049;-71
2022/05/11 02:20:31;;;;;;;21.80;6.47;;;12.50;99.90;;;;;;5052787;28;20044;-71
2022/05/11 02:22:58;;;;;;;20.95;5.15;;;12.50;99.90;;;;;;5053381;28;20045;-72
2022/05/11 02:25:25;;;;;;;14.23;5.75;;;12.60;99.90;;;;;;5053196;28;20575;-72
2022/05/11 02:27:52;;;;;;;20.00;5.28;;;12.60;99.90;;;;;;5051658;28;20060;-72
2022/05/11 02:30:30;;;;;;;13.20;5.20;;;12.70;99.90;;;;;;5053035;28;20037;-72
2022/05/11 02:32:57;;;;;;;18.25;5.53;;;12.70;99.90;;;;;;5051803;28;20045;-71
2022/05/11 02:35:24;;;;;;;17.83;4.85;;;12.70;99.90;;;;;;5053022;28;20084;-72
2022/05/11 02:37:56;;;;;;;18.20;4.68;;;12.80;99.90;;;;;;5052904;28;20396;-72
2022/05/11 02:40:31;;;;;;;23.77;5.80;;;12.80;99.90;;;;;;5053057;28;20049;-72
2022/05/11 02:42:58;;;;;;;19.40;5.20;;;12.90;99.90;;;;;;5051867;28;20041;-72
2022/05/11 02:45:25;;;;;;;16.55;5.20;;;12.80;99.90;;;;;;5052967;28;20045;-72
2022/05/11 02:47:53;;;;;;;17.73;5.90;;;12.90;99.90;;;;;;5052925;28;20045;-71
2022/05/11 02:50:24;;;;;;;17.55;6.13;;;12.90;99.90;;;;;;5052108;28;20037;-71
2022/05/11 02:52:51;;;;;;;21.17;5.88;;;12.90;99.90;;;;;;5052475;28;20444;-76
2022/05/11 02:55:18;;;;;;;13.00;5.82;;;12.90;99.90;;;;;;5053166;28;20044;-71
2022/05/11 02:57:46;;;;;;;17.58;5.40;;;12.90;99.90;;;;;;5052654;28;20049;-71
2022/05/11 03:00:15;;;;;;;21.52;5.85;;;12.90;99.90;;;;;;5051985;28;20465;-71
2022/05/11 03:02:42;;;;;;;17.40;5.45;;;12.90;99.90;;;;;;5051786;28;20052;-71
2022/05/11 03:05:11;;;;;;;18.70;5.70;;;12.90;99.90;;;;;;5051604;28;20041;-71
2022/05/11 03:07:39;;;;;;;16.58;5.95;;;12.90;99.90;;;;;;5051539;28;20041;-71
2022/05/11 03:10:06;;;;;;;22.50;6.68;;;12.90;99.90;;;;;;5051800;28;20385;-72
2022/05/11 03:12:33;;;;;;;13.45;5.40;;;12.90;99.90;;;;;;5051477;28;20045;-72
2022/05/11 03:15:00;;;;;;;13.88;4.82;;;12.90;99.90;;;;;;5052630;28;20044;-72
2022/05/11 03:17:28;;;;;;;14.63;5.63;;;12.90;99.90;;;;;;5053401;28;20403;-71
2022/05/11 03:19:55;;;;;;;12.95;4.45;;;12.90;99.90;;;;;;5052668;28;20037;-71
2022/05/11 03:22:22;;;;;;;13.07;4.47;;;12.90;99.90;;;;;;5052672;28;20045;-71
2022/05/11 03:24:49;;;;;;;16.95;5.65;;;12.80;99.90;;;;;;5053668;28;20048;-71
2022/05/11 03:27:16;;;;;;;11.98;5.47;;;12.90;99.90;;;;;;5052448;28;20132;-71
2022/05/11 03:29:43;;;;;;;19.23;5.90;;;12.80;99.90;;;;;;5052926;28;20048;-71
2022/05/11 03:34:55;;;;;;;16.30;4.95;;;12.90;99.90;;;;;;5052631;28;20361;-70
2022/05/11 03:37:22;;;;;;;14.95;4.57;;;12.80;99.90;;;;;;5052463;28;20041;-71
2022/05/11 03:39:49;;;;;;;17.88;5.10;;;12.80;99.90;;;;;;5054898;28;20453;-70
2022/05/11 03:42:18;;;;;;;14.02;5.20;;;12.80;99.90;;;;;;5056100;28;20057;-70
2022/05/11 03:44:45;;;;;;;13.50;4.63;;;12.80;99.90;;;;;;5054789;28;20045;-70
2022/05/11 03:47:12;;;;;;;16.40;4.57;;;12.70;99.90;;;;;;5057064;28;20041;-70
2022/05/11 03:49:39;;;;;;;12.32;4.07;;;12.70;99.90;;;;;;5055039;28;20041;-70
2022/05/11 03:52:06;;;;;;;15.20;4.85;;;12.60;99.90;;;;;;5055286;28;20052;-70
2022/05/11 03:54:36;;;;;;;17.85;4.47;;;12.50;99.90;;;;;;5057277;28;20045;-70
2022/05/11 03:57:03;;;;;;;23.80;5.45;;;12.50;99.90;;;;;;5056943;28;20052;-70
2022/05/11 03:59:30;;;;;;;12.07;4.90;;;12.40;99.90;;;;;;5056718;28;20072;-70
2022/05/11 04:01:57;;;;;;;19.88;5.63;;;12.30;99.90;;;;;;5055595;28;20408;-71
2022/05/11 04:04:24;;;;;;;13.85;5.18;;;12.30;99.90;;;;;;5055245;28;20083;-71
2022/05/11 04:06:51;;;;;;;20.10;6.82;;;12.20;99.90;;;;;;5054876;28;20476;-71
2022/05/11 04:09:18;;;;;;;16.00;4.85;;;12.20;99.90;;;;;;5055550;28;20052;-71
2022/05/11 04:11:45;;;;;;;25.13;6.78;;;12.20;99.90;;;;;;5055845;28;20048;-71
2022/05/11 04:14:12;;;;;;;15.50;5.60;;;12.10;99.90;;;;;;5054536;28;20047;-70
2022/05/11 04:16:39;;;;;;;12.45;4.75;;;12.10;99.90;;;;;;5056292;28;20045;-70
2022/05/11 04:19:06;;;;;;;15.73;5.50;;;12.10;99.90;;;;;;5038017;28;20048;-70
2022/05/11 04:21:33;;;;;;;13.10;5.53;;;12.00;99.90;;;;;;5054119;28;20073;-70
2022/05/11 04:24:00;;;;;;;15.85;4.70;;;12.00;99.90;;;;;;5055775;28;20052;-70
2022/05/11 04:26:30;;;;;;;23.50;6.45;;;12.10;99.90;;;;;;5055912;28;20052;-70
2022/05/11 04:28:57;;;;;;;14.88;5.03;;;12.00;99.90;;;;;;5053982;28;20053;-71
2022/05/11 04:31:24;;;;;;;14.88;5.47;;;12.00;99.90;;;;;;5055204;28;20049;-71
2022/05/11 04:33:51;;;;;;;18.63;4.50;;;12.00;99.90;;;;;;5053833;28;20044;-71
2022/05/11 04:36:18;;;;;;;17.63;5.93;;;12.00;99.90;;;;;;5055008;28;20130;-71
2022/05/11 04:38:45;;;;;;;12.50;5.45;;;12.00;99.90;;;;;;5055686;28;20045;-71
2022/05/11 04:41:12;;;;;;;13.18;4.68;;;12.10;99.90;;;;;;5054019;28;20487;-71
2022/05/11 04:43:38;;;;;;;13.15;4.68;;;12.10;99.90;;;;;;5054459;28;20342;-71
2022/05/11 04:46:05;;;;;;;16.17;5.20;;;12.00;99.90;;;;;;5055212;28;20353;-71
2022/05/11 04:48:32;;;;;;;16.02;5.55;;;12.00;99.90;;;;;;5055279;28;20083;-71
2022/05/11 04:51:03;;;;;;;19.25;5.30;;;12.00;99.90;;;;;;5054617;28;20048;-71
2022/05/11 04:53:30;;;;;;;14.70;5.25;;;12.00;99.90;;;;;;5053812;28;20049;-71
2022/05/11 04:55:59;;;;;;;16.92;5.88;;;12.10;99.90;;;;;;5054633;28;20044;-71
2022/05/11 04:58:26;;;;;;;16.70;5.13;;;12.10;99.90;;;;;;5054848;28;20049;-71
2022/05/11 05:00:54;;;;;;;12.98;3.97;;;12.20;99.90;;;;;;5055325;28;20040;-71
2022/05/11 05:03:21;;;;;;;16.90;5.30;;;12.20;99.90;;;;;;5054414;28;20052;-71
2022/05/11 05:05:48;;;;;;;16.83;5.30;;;12.50;99.90;;;;;;5054616;28;20041;-71
2022/05/11 05:08:15;;;;;;;14.05;5.28;;;12.80;99.90;;;;;;5054463;28;20045;-72
2022/05/11 05:10:43;;;;;;;15.63;4.40;;;12.90;99.90;;;;;;5054697;28;20468;-71
2022/05/11 05:13:11;;;;;;;14.98;5.22;;;13.00;99.90;;;;;;5055429;28;20080;-71
2022/05/11 05:15:40;;;;;;;19.37;5.50;;;13.10;99.90;;;;;;5055328;28;20044;-71
2022/05/11 05:18:07;;;;;;;16.52;5.43;;;13.20;99.90;;;;;;5053274;28;20051;-70
2022/05/11 05:20:34;;;;;;;14.25;5.60;;;13.40;99.90;;;;;;5053011;28;20444;-71
2022/05/11 05:23:01;;;;;;;13.95;5.70;;;13.60;99.90;;;;;;5054046;28;20037;-71
2022/05/11 05:25:28;;;;;;;17.27;6.32;;;13.70;99.90;;;;;;5052816;28;20044;-71
2022/05/11 05:31:04;;;;;;;12.40;4.70;;;13.80;99.90;;;;;;5054327;28;20380;-70
2022/05/11 05:33:28;;;;;;;16.48;5.40;;;13.80;99.90;;;;;;5053666;28;20068;-71
2022/05/11 05:35:55;;;;;;;15.85;5.45;;;14.10;99.90;;;;;;5053800;28;20037;-71
2022/05/11 05:38:22;;;;;;;13.23;5.40;;;14.10;99.90;;;;;;5052458;28;20041;-71
2022/05/11 05:40:49;;;;;;;16.45;5.72;;;14.10;99.90;;;;;;5052780;28;20408;-71
2022/05/11 05:43:16;;;;;;;15.68;5.32;;;14.30;99.90;;;;;;5054164;28;20049;-70
2022/05/11 05:45:47;;;;;;;12.85;5.82;;;14.40;99.90;;;;;;5053644;28;20421;-71
2022/05/11 05:48:14;;;;;;;13.43;4.55;;;14.40;99.90;;;;;;5052486;28;20045;-65
2022/05/11 05:50:41;;;;;;;49.97;40.15;;;14.60;99.90;;;;;;5052704;28;20055;-69
2022/05/11 05:53:08;;;;;;;23.05;9.50;;;14.60;99.90;;;;;;5052567;28;20040;-74
2022/05/11 05:55:36;;;;;;;14.80;5.95;;;14.70;99.90;;;;;;5054005;28;20428;-70
2022/05/11 05:58:03;;;;;;;11.27;4.97;;;14.70;99.90;;;;;;5052157;28;20380;-71
2022/05/11 06:00:30;;;;;;;15.82;7.28;;;14.70;99.90;;;;;;5053267;28;20472;-73
2022/05/11 06:02:57;;;;;;;12.13;5.15;;;14.80;99.90;;;;;;5053851;28;20056;-74
2022/05/11 06:05:28;;;;;;;14.63;4.70;;;14.80;99.90;;;;;;5053667;28;20041;-74
2022/05/11 06:07:56;;;;;;;20.00;8.02;;;15.00;99.90;;;;;;5052661;28;20052;-79
2022/05/11 06:10:24;;;;;;;18.40;5.75;;;15.10;99.90;;;;;;5054086;28;20471;-75
2022/05/11 06:12:52;;;;;;;20.55;6.80;;;15.40;99.90;;;;;;5052477;28;20045;-73
2022/05/11 06:15:19;;;;;;;13.93;4.55;;;15.30;99.90;;;;;;5054316;28;20048;-74
2022/05/11 06:17:46;;;;;;;14.50;5.28;;;15.30;99.90;;;;;;5052308;28;20041;-74
2022/05/11 06:20:13;;;;;;;17.15;4.63;;;15.30;99.90;;;;;;5053987;28;20046;-54
2022/05/11 06:22:41;;;;;;;11.40;3.92;;;15.30;99.90;;;;;;5053146;28;20044;-69
2022/05/11 06:25:08;;;;;;;10.98;4.10;;;15.30;99.90;;;;;;5053898;28;20392;-68
2022/05/11 06:27:35;;;;;;;14.20;4.22;;;15.40;99.90;;;;;;5053136;28;20051;-68
2022/05/11 06:30:03;;;;;;;15.20;4.70;;;15.40;99.90;;;;;;5053823;28;20119;-69
2022/05/11 06:32:30;;;;;;;18.42;6.25;;;15.40;99.90;;;;;;5053870;28;20099;-69
2022/05/11 06:34:57;;;;;;;11.90;4.03;;;15.40;99.90;;;;;;5053864;28;20045;-69
2022/05/11 06:37:24;;;;;;;14.07;4.93;;;15.30;99.90;;;;;;5052855;28;20041;-69
2022/05/11 06:39:51;;;;;;;10.18;4.10;;;15.40;99.90;;;;;;5051895;28;20051;-77
2022/05/11 06:42:20;;;;;;;12.48;5.47;;;15.50;99.90;;;;;;5035504;28;20053;-75
2022/05/11 06:44:48;;;;;;;13.95;4.97;;;15.60;99.90;;;;;;5035941;28;20103;-74
2022/05/11 06:47:15;;;;;;;12.88;4.35;;;15.60;99.90;;;;;;5051899;28;20052;-73
2022/05/11 06:49:42;;;;;;;18.35;4.65;;;15.50;99.90;;;;;;5053511;28;20055;-73
2022/05/11 06:52:09;;;;;;;16.42;4.30;;;15.40;99.90;;;;;;5052846;28;20047;-73
2022/05/11 07:00:12;;;;;;;12.77;4.55;;;15.50;99.90;;;;;;5053340;28;20453;-74
2022/05/11 07:02:39;;;;;;;14.75;4.50;;;15.60;99.90;;;;;;5052999;28;20041;-73
2022/05/11 07:05:07;;;;;;;14.23;5.03;;;15.70;99.90;;;;;;5053044;28;20044;-74
2022/05/11 07:07:34;;;;;;;15.73;4.10;;;15.80;99.90;;;;;;5051532;28;20072;-73
2022/05/11 07:10:03;;;;;;;17.27;4.40;;;15.80;99.90;;;;;;5035548;28;20045;-71
2022/05/11 07:12:35;;;;;;;14.60;4.15;;;15.80;99.90;;;;;;5051729;28;20111;-72
2022/05/11 07:15:05;;;;;;;14.38;5.25;;;15.90;99.90;;;;;;5055996;28;20048;-72
2022/05/11 07:17:38;;;;;;;14.93;4.10;;;15.90;99.90;;;;;;5055184;28;20041;-73
2022/05/11 07:20:08;;;;;;;14.10;4.43;;;16.00;99.90;;;;;;5039355;28;20037;-71
2022/05/11 07:22:35;;;;;;;34.92;24.55;;;15.90;99.90;;;;;;5055292;28;20083;-76
2022/05/11 07:25:09;;;;;;;19.20;9.07;;;16.00;99.90;;;;;;5056249;28;20504;-75
2022/05/11 07:27:36;;;;;;;16.17;4.97;;;16.10;99.90;;;;;;5055448;28;20074;-76
2022/05/11 07:30:04;;;;;;;12.48;4.80;;;16.00;99.90;;;;;;5055091;28;20048;-75
2022/05/11 07:32:31;;;;;;;15.10;4.03;;;16.20;99.90;;;;;;5055433;28;20136;-73
2022/05/11 07:34:58;;;;;;;14.65;4.55;;;16.40;99.90;;;;;;5056846;28;20044;-72
2022/05/11 07:37:25;;;;;;;12.60;4.63;;;16.50;99.90;;;;;;5056133;28;20040;-74
2022/05/11 07:39:56;;;;;;;;;;;16.70;99.90;;;;;;5055413;28;20044;-72
2022/05/11 07:42:24;;;;;;;12.68;4.05;;;16.70;99.90;;;;;;5054674;28;19920;-72
2022/05/11 07:44:51;;;;;;;14.60;4.05;;;16.70;99.90;;;;;;5056178;28;20040;-75
2022/05/11 07:47:18;;;;;;;18.45;4.95;;;16.70;99.90;;;;;;5054974;28;20052;-76
2022/05/11 07:49:44;;;;;;;9.52;4.13;;;16.80;99.90;;;;;;5054567;28;20040;-70
2022/05/11 07:52:11;;;;;;;11.32;3.67;;;16.70;99.90;;;;;;5054634;28;20393;-72
2022/05/11 07:54:41;;;;;;;11.38;3.47;;;16.60;99.90;;;;;;5055970;28;20045;-74
2022/05/11 07:59:57;;;;;;;14.65;3.88;;;16.70;99.90;;;;;;5054601;28;20045;-83
2022/05/11 08:02:27;;;;;;;12.70;3.95;;;16.80;99.90;;;;;;5055594;28;20495;-77
2022/05/11 08:04:57;;;;;;;12.25;4.03;;;16.80;99.90;;;;;;5054281;28;20049;-80
2022/05/11 08:07:26;;;;;;;13.57;4.45;;;16.80;99.90;;;;;;5055859;28;20040;-78
2022/05/11 08:09:56;;;;;;;;;;;16.90;99.90;;;;;;5055016;28;20400;-75
2022/05/11 08:12:26;;;;;;;11.38;3.35;;;17.00;99.90;;;;;;5038187;28;20415;-77
2022/05/11 08:14:53;;;;;;;13.63;4.45;;;17.00;99.90;;;;;;5053882;28;20053;-75
2022/05/11 08:17:31;;;;;;;13.60;4.05;;;16.90;99.90;;;;;;5054410;28;20067;-77
2022/05/11 08:19:59;;;;;;;10.15;4.22;;;17.00;99.90;;;;;;5056083;28;20041;-77
2022/05/11 08:22:27;;;;;;;35.67;24.00;;;17.10;99.90;;;;;;5055021;28;20041;-74
2022/05/11 08:24:56;;;;;;;16.85;6.68;;;17.20;99.90;;;;;;5055714;28;20048;-72
2022/05/11 08:27:28;;;;;;;9.32;3.78;;;17.30;99.90;;;;;;5055537;28;20053;-72
2022/05/11 08:36:03;;;;;;;11.82;4.22;;;17.80;99.90;;;;;;5055472;28;20472;-72
2022/05/11 08:38:32;;;;;;;13.63;3.95;;;17.80;99.90;;;;;;5054561;28;20041;-71
2022/05/11 08:41:02;;;;;;;14.98;4.15;;;17.80;99.90;;;;;;5054207;28;20076;-73
2022/05/11 08:43:31;;;;;;;13.40;3.17;;;17.80;99.90;;;;;;5055005;28;20140;-71
2022/05/11 08:46:20;;;;;;;10.02;3.97;;;17.70;99.90;;;;;;5054559;28;20441;-75
2022/05/11 08:48:56;;;;;;;9.70;3.42;;;17.60;99.90;;;;;;5054132;28;20393;-71
2022/05/11 08:51:46;;;;;;;13.18;4.28;;;17.60;99.90;;;;;;5054665;28;20388;-71
2022/05/11 08:54:19;;;;;;;12.02;3.65;;;17.80;99.90;;;;;;5054883;28;20049;-77
2022/05/11 08:56:47;;;;;;;16.73;3.85;;;17.80;99.90;;;;;;5054078;28;20109;-77
2022/05/11 08:59:23;;;;;;;13.32;4.68;;;17.80;99.90;;;;;;5053060;28;20045;-74
2022/05/11 09:02:05;;;;;;;11.65;3.30;;;17.90;99.90;;;;;;5053287;28;20127;-65
2022/05/11 09:04:52;;;;;;;14.25;4.07;;;17.90;99.90;;;;;;5055187;28;20148;-77
2022/05/11 09:07:19;;;;;;;7.90;3.25;;;17.90;99.90;;;;;;5054443;28;20055;-77
2022/05/11 09:09:50;;;;;;;11.55;4.28;;;17.80;99.90;;;;;;5053371;28;20052;-76
2022/05/11 09:12:19;;;;;;;9.93;3.63;;;18.00;99.90;;;;;;5037864;28;20125;-77
2022/05/11 09:14:52;;;;;;;11.45;3.55;;;18.20;99.90;;;;;;5037567;28;20448;-75
2022/05/11 09:17:26;;;;;;;11.30;3.05;;;18.50;99.90;;;;;;5054253;28;20055;-75
2022/05/11 09:20:01;;;;;;;10.98;3.00;;;18.70;99.30;;;;;;5052980;28;20128;-75
2022/05/11 09:22:31;;;;;;;8.10;2.90;;;18.90;97.50;;;;;;5052860;28;20072;-77
2022/05/11 09:25:13;;;;;;;8.77;2.95;;;19.00;96.40;;;;;;5053003;28;20041;-76
2022/05/11 09:27:40;;;;;;;39.97;4.97;;;19.00;94.70;;;;;;5053150;28;20045;-74
2022/05/11 09:30:22;;;;;;;14.30;3.03;;;19.20;97.90;;;;;;5054070;28;20135;-75
2022/05/11 09:32:53;;;;;;;8.15;2.72;;;19.40;96.20;;;;;;5054252;28;20049;-75
2022/05/11 09:35:35;;;;;;;6.60;2.42;;;19.50;94.70;;;;;;5053696;28;20044;-75
2022/05/11 09:38:19;;;;;;;11.05;2.97;;;19.60;91.00;;;;;;5054540;28;20433;-69
2022/05/11 09:40:57;;;;;;;8.80;3.03;;;19.60;91.50;;;;;;5053071;28;20045;-85
2022/05/11 09:43:50;;;;;;;11.57;3.97;;;19.60;91.00;;;;;;5054113;28;20476;-83
2022/05/11 09:46:26;;;;;;;80.07;11.30;;;19.60;90.80;;;;;;5054144;28;20049;-78
2022/05/11 09:49:15;;;;;;;11.43;3.40;;;19.70;91.30;;;;;;5054433;28;20047;-68
2022/05/11 09:51:51;;;;;;;7.70;3.40;;;19.70;89.50;;;;;;5054084;28;20052;-68
2022/05/11 09:54:46;;;;;;;13.13;4.00;;;19.70;90.50;;;;;;5054677;28;20056;-69
2022/05/11 09:57:13;;;;;;;17.13;4.25;;;19.60;88.90;;;;;;5053754;28;20511;-71
2022/05/11 09:59:45;;;;;;;12.55;3.65;;;19.70;90.60;;;;;;5053522;28;20052;-72
2022/05/11 10:02:24;;;;;;;15.82;3.50;;;19.80;87.70;;;;;;5053042;28;20053;-70
2022/05/11 10:05:17;;;;;;;9.00;2.63;;;19.70;87.50;;;;;;5054332;28;20040;-71
2022/05/11 10:07:58;;;;;;;10.20;2.90;;;19.70;86.20;;;;;;5053433;28;20043;-74
2022/05/11 10:10:26;;;;;;;13.00;3.08;;;19.70;89.30;;;;;;5053438;28;20045;-68
2022/05/11 10:12:55;;;;;;;8.15;2.58;;;19.60;89.50;;;;;;5053683;28;20052;-69
2022/05/11 10:24:14;;;;;;;8.02;2.80;;;18.60;93.80;;;;;;5052536;28;20049;-74
2022/05/11 10:27:23;;;;;;;11.88;3.17;;;18.50;95.40;;;;;;5052118;28;20047;-75
2022/05/11 10:30:04;;;;;;;8.73;3.05;;;18.40;93.60;;;;;;5052121;28;20056;-74
2022/05/11 10:33:09;;;;;;;47.50;39.00;;;18.50;93.90;;;;;;5052855;28;20132;-73
2022/05/11 10:35:51;;;;;;;16.10;6.80;;;18.60;94.90;;;;;;5053424;28;20041;-75
2022/05/11 10:38:28;;;;;;;11.07;3.15;;;18.60;95.00;;;;;;5052090;28;20476;-72
2022/05/11 10:40:55;;;;;;;11.18;3.72;;;18.70;94.00;;;;;;5052514;28;20080;-71
2022/05/11 10:43:34;;;;;;;18.80;3.72;;;18.50;93.90;;;;;;5053457;28;20045;-73
2022/05/11 10:46:56;;;;;;;25.67;15.60;;;18.20;94.20;;;;;;5054935;28;20427;-81
2022/05/11 10:49:26;;;;;;;10.18;5.60;;;18.20;93.80;;;;;;5055848;28;20041;-85
2022/05/11 10:52:26;;;;;;;49.35;36.05;;;18.20;95.70;;;;;;5052239;28;20038;-73
2022/05/11 10:54:52;;;;;;;;;;;18.20;95.50;;;;;;5057639;28;20040;-70
2022/05/11 10:57:40;;;;;;;9.05;4.75;;;18.20;95.90;;;;;;5057405;28;19928;-71
2022/05/11 11:00:15;;;;;;;9.90;3.30;;;18.20;97.30;;;;;;5057167;28;20049;-74
2022/05/11 11:02:48;;;;;;;14.10;3.10;;;18.10;97.30;;;;;;5056953;28;20064;-71
2022/05/11 11:05:21;;;;;;;11.05;3.45;;;17.90;97.30;;;;;;5056818;28;20043;-69
2022/05/11 11:07:55;;;;;;;15.32;3.72;;;17.70;97.70;;;;;;5039506;28;20037;-69
2022/05/11 11:10:22;;;;;;;13.38;3.72;;;17.50;98.80;;;;;;5055536;28;20052;-70
2022/05/11 11:13:28;;;;;;;11.88;3.10;;;17.40;98.70;;;;;;5056689;28;20131;-72
2022/05/11 11:15:54;;;;;;;11.20;3.33;;;17.30;99.70;;;;;;5055975;28;20052;-78
2022/05/11 11:18:33;;;;;;;27.77;18.27;;;17.40;99.90;;;;;;5040011;28;20436;-71
2022/05/11 11:21:04;;;;;;;18.00;6.40;;;17.50;99.90;;;;;;5055259;28;20500;-76
2022/05/11 11:23:36;;;;;;;7.60;3.30;;;17.50;99.90;;;;;;5055835;28;20539;-76
2022/05/11 11:26:05;;;;;;;12.05;3.53;;;17.40;99.90;;;;;;5055623;28;20397;-77
2022/05/11 11:28:55;;;;;;;10.70;3.03;;;17.30;99.90;;;;;;5057492;28;20045;-74
2022/05/11 11:31:26;;;;;;;10.18;3.72;;;17.30;99.90;;;;;;5055933;28;20491;-74
2022/05/11 11:33:56;;;;;;;9.18;3.67;;;17.30;99.90;;;;;;5038527;28;20037;-75
2022/05/11 11:36:31;;;;;;;11.40;3.13;;;17.40;99.90;;;;;;5056138;28;20056;-69
2022/05/11 11:38:59;;;;;;;14.63;3.63;;;17.30;99.90;;;;;;5056404;28;20099;-70
2022/05/11 11:41:30;;;;;;;12.32;3.05;;;17.30;99.90;;;;;;5055128;28;20361;-63
2022/05/11 11:43:59;;;;;;;11.43;3.90;;;17.10;99.90;;;;;;5054893;28;20044;-74
2022/05/11 11:46:42;;;;;;;17.52;3.28;;;17.10;99.90;;;;;;5054732;28;20076;-75
2022/05/11 11:49:18;;;;;;;11.18;3.75;;;17.00;99.90;;;;;;5038624;28;20053;-74
2022/05/11 11:51:58;;;;;;;9.52;3.13;;;17.00;99.90;;;;;;5054805;28;20098;-78
2022/05/11 11:54:37;;;;;;;11.15;3.95;;;17.00;99.90;;;;;;5054932;28;20083;-71
2022/05/11 11:57:22;;;;;;;13.05;4.07;;;17.10;99.90;;;;;;5055747;28;20045;-71
2022/05/11 11:59:50;;;;;;;15.93;3.70;;;17.10;99.90;;;;;;5053553;28;20057;-73
2022/05/11 12:02:29;;;;;;;11.65;3.42;;;17.20;99.90;;;;;;5055293;28;20052;-72
2022/05/11 12:05:29;;;;;;;10.18;3.80;;;17.30;99.90;;;;;;5054963;28;20041;-75
2022/05/11 12:16:58;;;;;;;14.00;5.10;;;17.40;99.90;;;;;;5054424;28;20052;-69
2022/05/11 12:19:29;;;;;;;10.35;2.95;;;17.40;99.90;;;;;;5055766;28;20423;-67
2022/05/11 12:22:16;;;;;;;9.88;2.85;;;17.20;99.90;;;;;;5038205;28;20068;-71
2022/05/11 12:25:07;;;;;;;12.55;4.00;;;16.90;99.90;;;;;;5055547;28;20045;-71
2022/05/11 12:27:35;;;;;;;9.07;2.90;;;16.80;99.90;;;;;;5054443;28;20096;-73
2022/05/11 12:30:42;;;;;;;10.68;3.38;;;16.80;99.90;;;;;;5055144;28;20048;-70
2022/05/11 12:33:17;;;;;;;7.57;2.70;;;16.90;99.90;;;;;;5055133;28;20045;-68
2022/05/11 12:35:45;;;;;;;10.82;4.05;;;16.80;99.90;;;;;;5054003;28;20051;-72
2022/05/11 12:38:13;;;;;;;9.65;3.28;;;16.80;99.90;;;;;;5053900;28;20041;-72
2022/05/11 12:40:45;;;;;;;11.30;2.72;;;16.90;99.90;;;;;;5054148;28;20072;-72
2022/05/11 12:43:21;;;;;;;11.13;2.67;;;16.90;99.90;;;;;;5053986;28;20041;-75
2022/05/11 12:45:49;;;;;;;9.60;2.78;;;16.90;99.90;;;;;;5053916;28;20388;-72
2022/05/11 12:48:24;;;;;;;9.45;3.13;;;16.90;99.90;;;;;;5053880;28;20419;-72
2022/05/11 12:51:14;;;;;;;10.35;3.05;;;16.80;99.90;;;;;;5054558;28;20457;-72
2022/05/11 12:53:49;;;;;;;11.10;2.95;;;16.70;99.90;;;;;;5054711;28;20041;-72
2022/05/11 12:56:19;;;;;;;10.38;3.58;;;16.80;99.90;;;;;;5053834;28;20041;-72
2022/05/11 12:58:48;;;;;;;8.52;3.42;;;16.80;99.90;;;;;;5054849;28;20060;-72
2022/05/11 13:01:17;;;;;;;;;;;16.90;99.90;;;;;;5054624;28;20045;-72
2022/05/11 13:03:45;;;;;;;10.48;2.92;;;16.80;99.90;;;;;;5053625;28;19916;-72
2022/05/11 13:06:34;;;;;;;8.18;3.63;;;16.60;99.90;;;;;;5055648;28;20041;-72
2022/05/11 13:09:06;;;;;;;8.85;3.22;;;16.50;99.90;;;;;;5039418;28;20053;-73
2022/05/11 13:11:33;;;;;;;12.35;4.13;;;16.40;99.90;;;;;;5054766;28;20041;-72
2022/05/11 13:14:00;;;;;;;7.78;3.30;;;16.40;99.90;;;;;;5053699;28;20053;-72
2022/05/11 13:16:32;;;;;;;10.48;3.40;;;16.40;99.90;;;;;;5053699;28;20044;-72
2022/05/11 13:19:11;;;;;;;18.92;4.57;;;16.50;99.90;;;;;;5053369;28;20068;-72
2022/05/11 13:21:38;;;;;;;10.90;3.13;;;16.50;99.90;;;;;;5054197;28;20040;-73
2022/05/11 13:24:07;;;;;;;9.00;3.67;;;16.50;99.90;;;;;;5054206;28;20049;-73
2022/05/11 13:26:41;;;;;;;8.82;3.10;;;16.30;99.90;;;;;;5053303;28;20037;-73
2022/05/11 13:29:15;;;;;;;9.68;3.67;;;16.20;99.90;;;;;;5052903;28;20040;-73
2022/05/11 13:31:59;;;;;;;13.00;4.25;;;16.20;99.90;;;;;;5054858;28;20048;-73
2022/05/11 13:34:37;;;;;;;10.90;4.40;;;16.20;99.90;;;;;;5036523;28;20106;-75
2022/05/11 13:37:04;;;;;;;74.38;57.67;;;16.20;99.90;;;;;;5053361;28;20049;-71
2022/05/11 13:39:35;;;;;;;12.48;6.93;;;16.10;99.90;;;;;;5052992;28;20041;-73